createdAt,value
2022-11-20T00:00:57.100Z,9.43
2022-11-20T00:03:28.956Z,9.33
2022-11-20T00:06:03.453Z,9.67
2022-11-20T00:08:35.452Z,9.50
2022-11-20T00:11:20.338Z,8.63
2022-11-20T00:13:56.101Z,9.67
2022-11-20T00:16:31.049Z,9.53
2022-11-20T00:19:03.350Z,9.47
2022-11-20T00:21:35.242Z,9.30
2022-11-20T00:24:10.178Z,9.30
2022-11-20T00:26:42.104Z,10.10
2022-11-20T00:29:14.084Z,9.33
2022-11-20T00:31:46.018Z,9.60
2022-11-20T00:34:18.031Z,10.13
2022-11-20T00:36:49.998Z,9.50
2022-11-20T00:39:22.178Z,10.10
2022-11-20T00:41:54.361Z,10.13
2022-11-20T00:44:26.367Z,10.17
2022-11-20T00:46:58.332Z,9.63
2022-11-20T00:49:30.200Z,9.57
2022-11-20T00:52:02.206Z,9.47
2022-11-20T00:54:34.085Z,10.20
2022-11-20T00:57:05.951Z,9.60
2022-11-20T00:59:37.877Z,9.53
2022-11-20T01:02:09.767Z,9.90
2022-11-20T01:04:41.783Z,9.97
2022-11-20T01:07:13.752Z,9.67
2022-11-20T01:09:45.671Z,10.07
2022-11-20T01:12:17.606Z,9.97
2022-11-20T01:14:49.552Z,10.43
2022-11-20T01:17:21.452Z,9.90
2022-11-20T01:19:53.314Z,10.20
2022-11-20T01:22:25.321Z,9.77
2022-11-20T01:24:57.213Z,10.57
2022-11-20T01:27:29.106Z,9.90
2022-11-20T01:30:01.530Z,9.97
2022-11-20T01:32:33.499Z,10.40
2022-11-20T01:35:06.017Z,10.10
2022-11-20T01:37:37.991Z,9.97
2022-11-20T01:40:10.916Z,10.33
2022-11-20T01:43:15.624Z,9.40
2022-11-20T01:46:14.246Z,9.23
2022-11-20T01:49:09.012Z,9.87
2022-11-20T01:51:49.654Z,9.87
2022-11-20T01:54:42.930Z,10.00
2022-11-20T01:57:17.372Z,10.07
2022-11-20T01:59:58.075Z,10.73
2022-11-20T02:02:30.048Z,9.60
2022-11-20T02:05:29.232Z,10.43
2022-11-20T02:08:02.984Z,9.27
2022-11-20T02:10:36.001Z,9.53
2022-11-20T02:13:27.961Z,10.03
2022-11-20T02:16:00.011Z,9.57
2022-11-20T02:18:32.351Z,10.20
2022-11-20T02:21:16.316Z,8.80
2022-11-20T02:24:19.505Z,9.70
2022-11-20T02:27:07.305Z,9.67
2022-11-20T02:30:04.050Z,9.20
2022-11-20T02:32:39.233Z,9.97
2022-11-20T02:35:31.047Z,9.83
2022-11-20T02:38:04.120Z,9.53
2022-11-20T02:40:36.003Z,10.00
2022-11-20T02:43:09.071Z,9.77
2022-11-20T02:45:41.029Z,10.47
2022-11-20T02:48:12.971Z,10.97
2022-11-20T02:50:44.862Z,12.03
2022-11-20T02:53:16.775Z,12.60
2022-11-20T02:55:48.719Z,13.27
2022-11-20T02:58:20.766Z,17.13
2022-11-20T03:00:53.893Z,19.70
2022-11-20T03:03:25.852Z,20.13
2022-11-20T03:06:00.920Z,18.67
2022-11-20T03:08:33.225Z,19.27
2022-11-20T03:11:08.125Z,17.97
2022-11-20T03:13:40.222Z,18.23
2022-11-20T03:16:16.297Z,16.73
2022-11-20T03:18:48.659Z,15.83
2022-11-20T03:21:20.605Z,15.43
2022-11-20T03:23:54.416Z,14.20
2022-11-20T03:26:28.279Z,13.57
2022-11-20T03:29:05.120Z,12.63
2022-11-20T03:31:41.506Z,12.80
2022-11-20T03:34:13.892Z,13.03
2022-11-20T03:36:45.930Z,12.67
2022-11-20T03:39:17.858Z,12.60
2022-11-20T03:41:49.792Z,13.00
2022-11-20T03:44:23.256Z,13.00
2022-11-20T03:46:55.106Z,12.67
2022-11-20T03:49:27.018Z,11.73
2022-11-20T03:51:59.189Z,12.10
2022-11-20T03:54:31.272Z,14.63
2022-11-20T03:57:03.209Z,15.73
2022-11-20T03:59:35.140Z,17.30
2022-11-20T04:02:07.075Z,16.50
2022-11-20T04:04:39.010Z,17.10
2022-11-20T04:07:11.267Z,16.90
2022-11-20T04:09:43.230Z,15.70
2022-11-20T04:12:15.157Z,15.57
2022-11-20T04:14:47.091Z,15.17
2022-11-20T04:17:18.973Z,13.93
2022-11-20T04:19:50.884Z,14.13
2022-11-20T04:22:22.782Z,15.00
2022-11-20T04:24:54.783Z,16.67
2022-11-20T04:27:26.647Z,18.37
2022-11-20T04:29:58.579Z,18.37
2022-11-20T04:32:30.532Z,19.13
2022-11-20T04:35:02.489Z,18.37
2022-11-20T04:37:34.792Z,18.63
2022-11-20T04:40:07.320Z,18.43
2022-11-20T04:42:39.341Z,17.20
2022-11-20T04:45:11.295Z,16.00
2022-11-20T04:47:43.209Z,16.50
2022-11-20T04:50:15.673Z,16.47
2022-11-20T04:52:47.613Z,17.93
2022-11-20T04:55:19.505Z,16.50
2022-11-20T04:57:52.511Z,16.13
2022-11-20T05:00:24.401Z,14.77
2022-11-20T05:02:56.576Z,14.03
2022-11-20T05:05:28.638Z,14.00
2022-11-20T05:08:00.784Z,14.23
2022-11-20T05:10:32.710Z,14.00
2022-11-20T05:13:04.686Z,13.73
2022-11-20T05:15:36.696Z,13.17
2022-11-20T05:18:08.768Z,13.67
2022-11-20T05:20:40.646Z,13.60
2022-11-20T05:23:12.604Z,14.77
2022-11-20T05:25:44.525Z,14.37
2022-11-20T05:28:16.445Z,13.73
2022-11-20T05:30:50.158Z,13.60
2022-11-20T05:33:22.884Z,13.80
2022-11-20T05:35:59.723Z,13.70
2022-11-20T05:38:32.644Z,13.40
2022-11-20T05:41:11.622Z,12.93
2022-11-20T05:43:46.268Z,12.63
2022-11-20T05:46:27.920Z,12.97
2022-11-20T05:49:00.831Z,12.40
2022-11-20T05:51:32.741Z,13.00
2022-11-20T05:54:04.674Z,12.37
2022-11-20T05:56:36.574Z,12.77
2022-11-20T05:59:08.512Z,13.30
2022-11-20T06:01:40.519Z,13.10
2022-11-20T06:04:12.456Z,13.07
2022-11-20T06:06:44.450Z,12.83
2022-11-20T06:09:16.428Z,13.03
2022-11-20T06:11:48.424Z,13.77
2022-11-20T06:14:20.485Z,13.83
2022-11-20T06:16:52.419Z,13.30
2022-11-20T06:19:24.474Z,13.53
2022-11-20T06:21:56.327Z,13.83
2022-11-20T06:24:28.266Z,15.20
2022-11-20T06:27:00.202Z,14.47
2022-11-20T06:29:34.115Z,13.43
2022-11-20T06:32:06.315Z,12.83
2022-11-20T06:34:38.271Z,13.03
2022-11-20T06:37:10.180Z,12.50
2022-11-20T06:39:42.059Z,12.90
2022-11-20T06:42:13.987Z,13.17
2022-11-20T06:44:45.932Z,12.93
2022-11-20T06:47:17.800Z,12.90
2022-11-20T06:49:49.746Z,12.10
2022-11-20T06:52:21.686Z,13.43
2022-11-20T06:54:53.616Z,12.50
2022-11-20T06:57:25.836Z,11.30
2022-11-20T06:59:57.757Z,12.60
2022-11-20T07:02:29.671Z,12.03
2022-11-20T07:05:01.632Z,11.90
2022-11-20T07:07:33.604Z,11.13
2022-11-20T07:10:06.487Z,11.80
2022-11-20T07:12:38.445Z,11.47
2022-11-20T07:15:10.535Z,12.00
2022-11-20T07:17:42.423Z,11.80
2022-11-20T07:20:15.230Z,12.07
2022-11-20T07:22:47.196Z,12.00
2022-11-20T07:25:19.111Z,12.07
2022-11-20T07:27:51.065Z,12.37
2022-11-20T07:30:22.922Z,11.77
2022-11-20T07:32:56.894Z,11.77
2022-11-20T07:35:28.859Z,12.43
2022-11-20T07:38:00.806Z,12.20
2022-11-20T07:40:32.771Z,11.73
2022-11-20T07:43:04.735Z,11.83
2022-11-20T07:45:36.765Z,12.07
2022-11-20T07:48:09.045Z,11.80
2022-11-20T07:50:40.940Z,12.20
2022-11-20T07:53:13.711Z,11.87
2022-11-20T07:55:45.772Z,11.77
2022-11-20T07:58:17.618Z,11.27
2022-11-20T08:00:49.685Z,12.27
2022-11-20T08:03:24.966Z,11.37
2022-11-20T08:06:03.245Z,12.33
2022-11-20T08:08:38.898Z,12.33
2022-11-20T08:11:32.847Z,11.90
2022-11-20T08:14:13.866Z,11.40
2022-11-20T08:16:49.373Z,11.23
2022-11-20T08:19:21.678Z,11.87
2022-11-20T08:21:53.836Z,12.13
2022-11-20T08:24:27.357Z,11.67
2022-11-20T08:27:00.274Z,11.47
2022-11-20T08:29:32.142Z,12.77
2022-11-20T08:32:04.280Z,12.40
2022-11-20T08:34:36.211Z,12.03
2022-11-20T08:37:08.182Z,12.20
2022-11-20T08:39:40.116Z,12.43
2022-11-20T08:42:11.956Z,12.70
2022-11-20T08:44:44.180Z,12.53
2022-11-20T08:47:16.128Z,12.67
2022-11-20T08:49:48.001Z,12.23
2022-11-20T08:52:19.931Z,12.90
2022-11-20T08:54:51.797Z,13.10
2022-11-20T08:57:24.630Z,13.30
2022-11-20T09:02:48.454Z,13.10
2022-11-20T09:05:20.348Z,13.33
2022-11-20T09:07:52.272Z,13.80
2022-11-20T09:10:25.034Z,14.30
2022-11-20T09:12:57.653Z,14.37
2022-11-20T09:15:29.791Z,14.37
2022-11-20T09:18:05.749Z,14.03
2022-11-20T09:20:37.906Z,14.73
2022-11-20T09:23:09.877Z,14.60
2022-11-20T09:25:42.518Z,14.83
2022-11-20T09:28:14.443Z,15.30
2022-11-20T09:30:46.453Z,16.07
2022-11-20T09:33:18.921Z,14.87
2022-11-20T09:35:50.864Z,16.77
2022-11-20T09:38:22.837Z,15.90
2022-11-20T09:41:29.808Z,17.30
2022-11-20T09:44:39.647Z,18.57
2022-11-20T09:48:10.798Z,18.67
2022-11-20T09:51:10.677Z,17.53
2022-11-20T09:54:15.886Z,18.07
2022-11-20T09:57:19.861Z,18.83
2022-11-20T10:00:00.165Z,19.07
2022-11-20T10:02:38.356Z,19.60
2022-11-20T10:05:23.856Z,19.67
2022-11-20T10:08:26.171Z,19.80
2022-11-20T10:11:14.980Z,20.53
2022-11-20T10:14:04.866Z,21.90
2022-11-20T10:17:14.497Z,20.37
2022-11-20T10:20:37.060Z,20.70
2022-11-20T10:23:36.883Z,20.30
2022-11-20T10:27:15.534Z,21.20
2022-11-20T10:30:15.876Z,19.20
2022-11-20T10:32:57.432Z,20.37
2022-11-20T10:35:43.086Z,20.67
2022-11-20T10:38:43.995Z,20.70
2022-11-20T10:41:26.996Z,20.70
2022-11-20T10:44:13.364Z,20.27
2022-11-20T10:46:46.782Z,21.63
2022-11-20T10:49:21.642Z,20.87
2022-11-20T10:52:12.258Z,19.93
2022-11-20T10:55:14.364Z,19.90
2022-11-20T10:58:19.801Z,19.67
2022-11-20T11:00:51.735Z,18.80
2022-11-20T11:03:32.333Z,19.93
2022-11-20T11:06:48.963Z,19.80
2022-11-20T11:09:40.815Z,20.90
2022-11-20T11:12:13.387Z,21.00
2022-11-20T11:14:55.165Z,21.37
2022-11-20T11:17:33.676Z,23.27
2022-11-20T11:20:11.518Z,21.83
2022-11-20T11:22:53.664Z,22.67
2022-11-20T11:25:38.203Z,22.90
2022-11-20T11:28:19.105Z,22.83
2022-11-20T11:30:51.156Z,23.70
2022-11-20T11:33:32.781Z,24.27
2022-11-20T11:36:22.622Z,25.37
2022-11-20T11:38:55.068Z,25.17
2022-11-20T11:41:34.097Z,25.13
2022-11-20T11:44:43.097Z,25.37
2022-11-20T11:47:44.512Z,27.73
2022-11-20T11:50:29.415Z,24.50
2022-11-20T11:53:13.160Z,25.90
2022-11-20T11:56:10.812Z,24.33
2022-11-20T11:58:52.908Z,24.07
2022-11-20T12:01:46.615Z,24.70
2022-11-20T12:05:16.702Z,23.50
2022-11-20T12:08:06.964Z,23.10
2022-11-20T12:11:37.447Z,23.73
2022-11-20T12:14:27.959Z,23.97
2022-11-20T12:17:01.737Z,24.27
2022-11-20T12:19:36.130Z,24.20
2022-11-20T12:22:23.974Z,23.60
2022-11-20T12:25:23.328Z,24.07
2022-11-20T12:28:25.325Z,23.50
2022-11-20T12:31:25.179Z,23.17
2022-11-20T12:34:41.620Z,23.53
2022-11-20T12:38:08.125Z,23.63
2022-11-20T12:41:36.225Z,22.73
2022-11-20T12:44:48.055Z,22.80
2022-11-20T12:47:40.495Z,22.57
2022-11-20T12:51:13.570Z,23.17
2022-11-20T12:54:22.553Z,24.07
2022-11-20T12:57:16.381Z,22.37
2022-11-20T13:00:09.478Z,24.20
2022-11-20T13:03:14.121Z,24.20
2022-11-20T13:06:01.252Z,24.67
2022-11-20T13:08:41.650Z,24.80
2022-11-20T13:11:55.940Z,24.23
2022-11-20T13:14:47.099Z,23.67
2022-11-20T13:17:25.556Z,33.05
2022-11-20T13:20:01.853Z,27.30
2022-11-20T13:22:49.736Z,34.28
2022-11-20T13:25:34.605Z,27.33
2022-11-20T13:28:12.385Z,26.33
2022-11-20T13:30:54.251Z,25.20
2022-11-20T13:33:39.268Z,24.83
2022-11-20T13:36:27.254Z,24.50
2022-11-20T13:39:00.443Z,24.00
2022-11-20T13:41:38.753Z,24.40
2022-11-20T13:44:13.456Z,24.13
2022-11-20T13:46:47.675Z,24.57
2022-11-20T13:49:32.672Z,25.17
2022-11-20T13:53:07.776Z,23.93
2022-11-20T13:55:59.514Z,23.00
2022-11-20T13:58:44.419Z,22.43
2022-11-20T14:01:25.496Z,24.33
2022-11-20T14:04:06.473Z,23.43
2022-11-20T14:06:48.688Z,24.87
2022-11-20T14:09:32.441Z,24.03
2022-11-20T14:12:16.828Z,24.27
2022-11-20T14:14:55.395Z,23.23
2022-11-20T14:17:35.704Z,23.77
2022-11-20T14:20:15.220Z,24.10
2022-11-20T14:22:51.875Z,23.77
2022-11-20T14:25:32.084Z,25.23
2022-11-20T14:28:05.479Z,24.97
2022-11-20T14:30:44.951Z,25.67
2022-11-20T14:33:18.224Z,24.40
2022-11-20T14:35:54.837Z,26.60
2022-11-20T14:38:30.227Z,25.20
2022-11-20T14:41:17.007Z,25.17
2022-11-20T14:43:58.652Z,25.43
2022-11-20T14:46:33.309Z,25.33
2022-11-20T14:49:05.865Z,25.87
2022-11-20T14:51:44.027Z,26.07
2022-11-20T14:54:26.506Z,26.33
2022-11-20T14:57:04.961Z,27.33
2022-11-20T14:59:36.991Z,26.30
2022-11-20T15:02:13.951Z,26.67
2022-11-20T15:04:51.543Z,24.73
2022-11-20T15:07:38.988Z,26.10
2022-11-20T15:10:25.889Z,25.53
2022-11-20T15:13:09.773Z,26.67
2022-11-20T15:15:55.942Z,25.50
2022-11-20T15:18:48.701Z,25.23
2022-11-20T15:21:24.844Z,25.60
2022-11-20T15:23:59.308Z,26.10
2022-11-20T15:26:32.797Z,25.93
2022-11-20T15:29:05.604Z,26.93
2022-11-20T15:31:38.570Z,26.83
2022-11-20T15:34:13.576Z,25.97
2022-11-20T15:36:45.566Z,25.90
2022-11-20T15:39:17.537Z,25.43
2022-11-20T15:41:49.463Z,26.17
2022-11-20T15:44:21.571Z,26.47
2022-11-20T15:46:53.918Z,24.57
2022-11-20T15:49:26.519Z,24.30
2022-11-20T15:51:58.736Z,25.67
2022-11-20T15:54:30.934Z,24.10
2022-11-20T15:57:03.907Z,36.33
2022-11-20T15:59:37.973Z,28.00
2022-11-20T16:02:18.669Z,26.27
2022-11-20T16:04:51.209Z,24.23
2022-11-20T16:07:23.259Z,25.03
2022-11-20T16:09:57.609Z,23.27
2022-11-20T16:12:48.235Z,22.10
2022-11-20T16:15:39.005Z,22.43
2022-11-20T16:18:14.402Z,20.97
2022-11-20T16:20:49.412Z,22.37
2022-11-20T16:23:22.400Z,21.13
2022-11-20T16:25:54.471Z,21.87
2022-11-20T16:28:26.478Z,20.47
2022-11-20T16:30:58.490Z,21.53
2022-11-20T16:33:30.396Z,20.40
2022-11-20T16:36:16.160Z,19.17
2022-11-20T16:38:53.393Z,19.73
2022-11-20T16:41:27.663Z,20.07
2022-11-20T16:44:02.915Z,20.80
2022-11-20T16:46:34.910Z,18.50
2022-11-20T16:49:13.239Z,17.47
2022-11-20T16:51:45.153Z,16.70
2022-11-20T16:54:20.765Z,14.83
2022-11-20T16:56:54.280Z,14.60
2022-11-20T16:59:26.208Z,12.57
2022-11-20T17:01:58.165Z,12.90
2022-11-20T17:04:30.208Z,12.17
2022-11-20T17:07:07.898Z,10.53
2022-11-20T17:09:41.007Z,10.50
2022-11-20T17:12:12.963Z,10.00
2022-11-20T17:14:44.966Z,9.17
2022-11-20T17:17:17.047Z,9.53
2022-11-20T17:19:49.058Z,9.07
2022-11-20T17:22:21.019Z,9.30
2022-11-20T17:24:53.008Z,8.73
2022-11-20T17:27:25.028Z,8.70
2022-11-20T17:29:58.968Z,12.20
2022-11-20T17:32:30.874Z,9.70
2022-11-20T17:35:02.926Z,12.13
2022-11-20T17:37:34.846Z,10.37
2022-11-20T17:40:07.409Z,9.73
2022-11-20T17:42:39.367Z,10.30
2022-11-20T17:45:11.457Z,10.43
2022-11-20T17:47:44.501Z,10.23
2022-11-20T17:50:16.491Z,10.87
2022-11-20T17:52:48.506Z,9.40
2022-11-20T17:55:20.485Z,10.70
2022-11-20T17:57:52.495Z,9.77
2022-11-20T18:00:25.394Z,8.73
2022-11-20T18:02:57.631Z,9.10
2022-11-20T18:05:29.505Z,8.73
2022-11-20T18:08:01.762Z,8.83
2022-11-20T18:10:35.295Z,8.70
2022-11-20T18:13:07.241Z,7.73
2022-11-20T18:15:39.201Z,7.30
2022-11-20T18:18:11.081Z,7.57
2022-11-20T18:20:43.081Z,7.87
2022-11-20T18:23:15.009Z,7.80
2022-11-20T18:25:47.545Z,8.40
2022-11-20T18:28:20.111Z,8.60
2022-11-20T18:30:52.020Z,8.63
2022-11-20T18:33:28.381Z,8.30
2022-11-20T18:36:22.485Z,9.10
2022-11-20T18:38:58.237Z,9.93
2022-11-20T18:41:50.500Z,10.37
2022-11-20T18:44:47.737Z,9.97
2022-11-20T18:47:30.747Z,10.27
2022-11-20T18:50:04.255Z,9.87
2022-11-20T18:52:44.299Z,10.57
2022-11-20T18:55:16.415Z,10.20
2022-11-20T18:57:48.320Z,10.77
2022-11-20T19:00:20.221Z,10.53
2022-11-20T19:02:55.268Z,11.00
2022-11-20T19:05:27.224Z,11.40
2022-11-20T19:07:59.175Z,11.80
2022-11-20T19:10:31.162Z,11.93
2022-11-20T19:13:03.288Z,11.93
2022-11-20T19:15:37.016Z,12.30
2022-11-20T19:18:09.282Z,12.03
2022-11-20T19:20:41.234Z,12.30
2022-11-20T19:23:13.497Z,12.47
2022-11-20T19:25:45.447Z,12.77
2022-11-20T19:28:17.350Z,13.13
2022-11-20T19:30:49.311Z,12.30
2022-11-20T19:33:21.230Z,13.33
2022-11-20T19:35:53.445Z,12.70
2022-11-20T19:38:25.638Z,13.67
2022-11-20T19:40:57.574Z,14.50
2022-11-20T19:43:29.499Z,14.00
2022-11-20T19:46:02.672Z,13.70
2022-11-20T19:48:37.675Z,13.63
2022-11-20T19:51:19.844Z,13.63
2022-11-20T19:53:52.741Z,14.30
2022-11-20T19:56:26.533Z,13.57
2022-11-20T19:58:58.853Z,13.37
2022-11-20T20:01:32.199Z,14.40
2022-11-20T20:04:05.450Z,13.73
2022-11-20T20:06:39.112Z,13.60
2022-11-20T20:09:13.358Z,13.33
2022-11-20T20:11:46.991Z,13.37
2022-11-20T20:14:19.278Z,14.73
2022-11-20T20:16:51.238Z,13.43
2022-11-20T20:19:23.465Z,12.63
2022-11-20T20:21:55.639Z,12.80
2022-11-20T20:24:27.529Z,12.43
2022-11-20T20:26:59.464Z,12.77
2022-11-20T20:29:31.407Z,12.27
2022-11-20T20:32:03.328Z,13.17
2022-11-20T20:34:35.281Z,12.73
2022-11-20T20:37:07.173Z,12.60
2022-11-20T20:39:39.111Z,12.27
2022-11-20T20:42:11.039Z,10.67
2022-11-20T20:45:01.457Z,10.80
2022-11-20T20:47:39.294Z,9.67
2022-11-20T20:50:13.268Z,8.97
2022-11-20T20:52:45.363Z,8.47
2022-11-20T20:55:17.445Z,7.43
2022-11-20T20:57:49.365Z,7.23
2022-11-20T21:00:21.426Z,6.83
2022-11-20T21:02:53.478Z,6.03
2022-11-20T21:05:25.448Z,6.20
2022-11-20T21:08:16.165Z,6.60
2022-11-20T21:11:12.824Z,6.33
2022-11-20T21:13:46.841Z,6.10
2022-11-20T21:16:25.114Z,5.80
2022-11-20T21:18:57.021Z,5.37
2022-11-20T21:21:47.515Z,5.90
2022-11-20T21:24:19.502Z,5.23
2022-11-20T21:26:52.294Z,5.50
2022-11-20T21:29:27.994Z,5.57
2022-11-20T21:31:59.933Z,5.77
2022-11-20T21:34:31.909Z,5.37
2022-11-20T21:37:03.852Z,4.83
2022-11-20T21:39:50.590Z,5.10
2022-11-20T21:42:22.652Z,4.93
2022-11-20T21:44:54.534Z,5.07
2022-11-20T21:47:26.491Z,5.40
2022-11-20T21:49:58.388Z,5.20
2022-11-20T21:52:30.301Z,4.90
2022-11-20T21:55:02.555Z,5.57
2022-11-20T21:57:35.721Z,6.27
2022-11-20T22:00:08.879Z,6.23
2022-11-20T22:02:40.853Z,6.80
2022-11-20T22:05:12.853Z,6.00
2022-11-20T22:07:45.830Z,6.50
2022-11-20T22:10:18.843Z,6.10
2022-11-20T22:12:50.813Z,6.00
2022-11-20T22:15:53.237Z,5.93
2022-11-20T22:18:14.721Z,5.57
2022-11-20T22:20:46.624Z,5.73
2022-11-20T22:23:18.571Z,6.10
2022-11-20T22:25:50.498Z,5.47
2022-11-20T22:28:22.471Z,5.90
2022-11-20T22:31:01.552Z,5.60
2022-11-20T22:33:35.384Z,5.50
2022-11-20T22:36:19.670Z,5.07
2022-11-20T22:38:52.396Z,5.37
2022-11-20T22:41:29.026Z,5.03
2022-11-20T22:44:07.806Z,5.20
2022-11-20T22:46:39.720Z,5.17
2022-11-20T22:49:11.700Z,5.40
2022-11-20T22:51:43.618Z,6.07
2022-11-20T22:54:15.679Z,5.73
2022-11-20T22:56:47.631Z,5.97
2022-11-20T22:59:19.556Z,5.53
2022-11-20T23:01:51.506Z,5.50
2022-11-20T23:04:23.738Z,5.20
2022-11-20T23:06:55.925Z,5.23
2022-11-20T23:09:28.351Z,5.47
2022-11-20T23:12:00.256Z,6.33
2022-11-20T23:14:32.689Z,5.33
2022-11-20T23:17:04.984Z,6.30
2022-11-20T23:19:36.945Z,5.37
2022-11-20T23:22:08.844Z,5.27
2022-11-20T23:24:40.849Z,4.43
2022-11-20T23:27:12.765Z,4.23
2022-11-20T23:29:44.778Z,4.33
2022-11-20T23:32:16.752Z,3.70
2022-11-20T23:34:48.665Z,4.30
2022-11-20T23:37:20.541Z,4.37
2022-11-20T23:39:52.439Z,4.70
2022-11-20T23:42:24.363Z,4.13
2022-11-20T23:44:56.254Z,4.13
2022-11-20T23:47:28.159Z,3.43
2022-11-20T23:50:00.057Z,3.43
2022-11-20T23:52:31.941Z,3.50
2022-11-20T23:55:04.238Z,3.40
2022-11-20T23:57:36.147Z,3.30
